Jericho Mills, Pennsylvania
Current Conditions -  °F | °C
As of 8:04 PM on Monday 26 Jan 2015 (Local Time) from KSEG Reporting Station
Light Snow Light Snow  
Wind Chill: 18°   Ceiling: 2500
Heat Index: 24°   Visibility: 2mi
Dew Point: 21°   Wind: 5mph
Humidity: 88%   Direction: 330°NNW
Pressure: 29.83"   Gusts: NA
Location:  40.5853°N, 77.3611°W
Report Text: KSEG 270104Z AUTO 33004KT 2SM -SN BR BKN025 OVC035 M04/M06 A2983 RMK AO2 P0000 T10441061
Loading
Personal Weather Stations






























Interactive Weather Map New forecast layout! Learn more

10-Day Weather Forecast

Advertisements
Track Severe Weather on mobile